Time;durP1;ratioP1;P1;durP2;ratioP2;P2;SDS_P1;SDS_P2;PMS_P1;PMS_P2;Temp;Humidity;BMP_temperature;BMP_pressure;BME280_temperature;BME280_humidity;BME280_pressure;Samples;Min_cycle;Max_cycle;Signal;HPM_P1;HPM_P2
2021/10/17 00:01:30;;;;;;;11.43;6.15;;;9.50;99.90;;;;;;4138432;28;20037;-74
2021/10/17 00:03:31;;;;;;;11.05;6.00;;;9.50;99.90;;;;;;4134227;28;20038;-74
2021/10/17 00:05:33;;;;;;;12.10;6.28;;;9.50;99.90;;;;;;4128886;28;20038;-74
2021/10/17 00:07:34;;;;;;;11.33;5.90;;;9.50;99.90;;;;;;4132961;28;20073;-74
2021/10/17 00:09:34;;;;;;;10.52;5.97;;;9.50;99.90;;;;;;4138797;28;20268;-74
2021/10/17 00:11:35;;;;;;;11.52;5.78;;;9.40;99.90;;;;;;4138641;28;20049;-74
2021/10/17 00:13:36;;;;;;;9.77;5.60;;;9.40;99.90;;;;;;4129095;28;20028;-74
2021/10/17 00:15:38;;;;;;;10.82;5.43;;;9.40;99.90;;;;;;4128521;28;20068;-75
2021/10/17 00:17:42;;;;;;;9.02;5.70;;;9.40;99.90;;;;;;4130480;28;20124;-74
2021/10/17 00:19:42;;;;;;;13.15;5.65;;;9.40;99.90;;;;;;4134367;28;20505;-74
2021/10/17 00:21:43;;;;;;;9.27;5.93;;;9.40;99.90;;;;;;4132509;28;20038;-74
2021/10/17 00:23:43;;;;;;;9.45;5.97;;;9.40;99.90;;;;;;4134585;28;20031;-74
2021/10/17 00:25:44;;;;;;;10.95;5.40;;;9.40;99.90;;;;;;4134020;28;20040;-74
2021/10/17 00:27:45;;;;;;;13.05;5.50;;;9.40;99.90;;;;;;4131416;28;20729;-74
2021/10/17 00:29:45;;;;;;;11.65;6.22;;;9.40;99.90;;;;;;4119015;28;20050;-74
2021/10/17 00:31:46;;;;;;;11.07;5.68;;;9.30;99.90;;;;;;4132996;28;20056;-74
2021/10/17 00:33:46;;;;;;;13.38;7.10;;;9.40;99.90;;;;;;4136634;28;20087;-74
2021/10/17 00:35:47;;;;;;;10.95;5.68;;;9.40;99.90;;;;;;4137605;28;20156;-74
2021/10/17 00:37:48;;;;;;;12.38;6.43;;;9.30;99.90;;;;;;4131599;28;20031;-74
2021/10/17 00:39:48;;;;;;;13.30;6.65;;;9.30;99.90;;;;;;4132610;28;20058;-74
2021/10/17 00:41:51;;;;;;;13.38;6.40;;;9.30;99.90;;;;;;4128441;28;20029;-74
2021/10/17 00:43:52;;;;;;;12.15;5.78;;;9.30;99.90;;;;;;4129512;28;20031;-74
2021/10/17 00:45:53;;;;;;;10.70;6.32;;;9.30;99.90;;;;;;4141381;28;20053;-74
2021/10/17 00:47:54;;;;;;;11.88;6.30;;;9.30;99.90;;;;;;4133209;28;20621;-74
2021/10/17 00:49:55;;;;;;;11.43;5.90;;;9.30;99.90;;;;;;4132324;28;20037;-74
2021/10/17 00:51:56;;;;;;;10.13;5.60;;;9.30;99.90;;;;;;4137517;28;20619;-74
2021/10/17 00:53:56;;;;;;;9.60;5.32;;;9.30;99.90;;;;;;4134556;28;20058;-74
2021/10/17 00:55:57;;;;;;;11.27;5.50;;;9.30;99.90;;;;;;4131859;28;20038;-74
2021/10/17 00:58:01;;;;;;;11.00;6.10;;;9.30;99.90;;;;;;4142599;28;20045;-74
2021/10/17 01:00:02;;;;;;;13.63;6.03;;;9.30;99.90;;;;;;4137516;28;20045;-74
2021/10/17 01:02:04;;;;;;;10.57;6.07;;;9.30;99.90;;;;;;4137437;28;20087;-74
2021/10/17 01:04:05;;;;;;;10.50;6.13;;;9.30;99.90;;;;;;4136103;28;20530;-74
2021/10/17 01:06:09;;;;;;;12.93;6.32;;;9.30;99.90;;;;;;4141161;28;20042;-74
2021/10/17 01:08:10;;;;;;;11.70;6.13;;;9.30;99.90;;;;;;4133615;28;20046;-75
2021/10/17 01:10:11;;;;;;;13.13;6.30;;;9.30;99.90;;;;;;4140292;28;20030;-74
2021/10/17 01:12:13;;;;;;;14.25;6.53;;;9.30;99.90;;;;;;4141746;28;20133;-74
2021/10/17 01:14:21;;;;;;;14.32;6.63;;;9.30;99.90;;;;;;4133171;28;20034;-74
2021/10/17 01:16:22;;;;;;;12.60;7.18;;;9.40;99.90;;;;;;4138020;28;20033;-74
2021/10/17 01:18:24;;;;;;;9.48;5.70;;;9.40;99.90;;;;;;4142018;28;20053;-74
2021/10/17 01:20:25;;;;;;;10.02;5.72;;;9.40;99.90;;;;;;4144844;28;20397;-74
2021/10/17 01:22:25;;;;;;;10.38;5.00;;;9.40;99.90;;;;;;4141721;28;20053;-74
2021/10/17 01:24:26;;;;;;;9.02;5.25;;;9.30;99.90;;;;;;4140388;28;20045;-74
2021/10/17 01:26:27;;;;;;;10.07;5.78;;;9.30;99.90;;;;;;4144852;28;20038;-74
2021/10/17 01:28:27;;;;;;;15.05;5.30;;;9.30;99.90;;;;;;4146474;28;20041;-75
2021/10/17 01:30:31;;;;;;;10.02;5.38;;;9.30;99.90;;;;;;4139902;28;20454;-75
2021/10/17 01:32:32;;;;;;;9.40;5.63;;;9.30;99.90;;;;;;4142344;28;20034;-74
2021/10/17 01:34:33;;;;;;;12.63;6.13;;;9.30;99.90;;;;;;4145810;28;20326;-74
2021/10/17 01:36:36;;;;;;;10.88;6.20;;;9.30;99.90;;;;;;4135616;28;20038;-74
2021/10/17 01:38:37;;;;;;;12.45;5.88;;;9.30;99.90;;;;;;4140138;28;20152;-74
2021/10/17 01:40:37;;;;;;;11.13;5.70;;;9.30;99.90;;;;;;4139889;28;20077;-74
2021/10/17 01:42:39;;;;;;;14.23;6.60;;;9.30;99.90;;;;;;4144448;28;20093;-74
2021/10/17 01:44:39;;;;;;;11.77;5.82;;;9.30;99.90;;;;;;4143465;28;20037;-74
2021/10/17 01:46:41;;;;;;;12.48;6.00;;;9.30;99.90;;;;;;4135494;28;20061;-74
2021/10/17 01:48:41;;;;;;;9.43;5.25;;;9.30;99.90;;;;;;4138836;28;20550;-73
2021/10/17 01:50:43;;;;;;;11.48;6.20;;;9.40;99.90;;;;;;4131714;28;20038;-75
2021/10/17 01:52:44;;;;;;;15.00;5.77;;;9.40;99.90;;;;;;4140481;28;20053;-74
2021/10/17 01:54:45;;;;;;;10.93;5.68;;;9.40;99.90;;;;;;4133976;28;20270;-75
2021/10/17 01:56:46;;;;;;;11.80;5.95;;;9.30;99.90;;;;;;4132324;28;20037;-75
2021/10/17 01:58:46;;;;;;;11.73;6.25;;;9.30;99.90;;;;;;4140783;28;20049;-75
2021/10/17 02:00:47;;;;;;;13.23;6.22;;;9.30;99.90;;;;;;4135669;28;20067;-75
2021/10/17 02:02:47;;;;;;;20.17;7.60;;;9.40;99.90;;;;;;4139809;28;20607;-75
2021/10/17 02:04:48;;;;;;;14.55;6.97;;;9.30;99.90;;;;;;4135369;28;20188;-75
2021/10/17 02:06:49;;;;;;;12.88;6.30;;;9.30;99.90;;;;;;4139435;28;20475;-75
2021/10/17 02:08:49;;;;;;;12.25;6.28;;;9.30;99.90;;;;;;4141534;28;20030;-75
2021/10/17 02:10:50;;;;;;;12.40;6.30;;;9.40;99.90;;;;;;4131778;28;20030;-75
2021/10/17 02:12:50;;;;;;;14.40;7.00;;;9.40;99.90;;;;;;4140037;28;20030;-75
2021/10/17 02:14:51;;;;;;;12.48;6.60;;;9.30;99.90;;;;;;4134901;28;20037;-75
2021/10/17 02:16:51;;;;;;;13.35;6.20;;;9.40;99.90;;;;;;4140222;28;20037;-75
2021/10/17 02:18:52;;;;;;;13.55;6.68;;;9.40;99.90;;;;;;4141675;28;20378;-75
2021/10/17 02:20:52;;;;;;;14.13;6.25;;;9.40;99.90;;;;;;4135675;28;20058;-75
2021/10/17 02:22:53;;;;;;;9.93;6.03;;;9.40;99.90;;;;;;4135029;28;20030;-75
2021/10/17 02:24:54;;;;;;;12.15;5.97;;;9.30;99.90;;;;;;4139877;28;20026;-75
2021/10/17 02:26:54;;;;;;;11.82;6.03;;;9.40;99.90;;;;;;4134553;28;20133;-75
2021/10/17 02:28:55;;;;;;;13.10;5.95;;;9.40;99.90;;;;;;4130415;28;20022;-75
2021/10/17 02:30:56;;;;;;;16.38;6.55;;;9.40;99.90;;;;;;4132387;28;20026;-75
2021/10/17 02:32:56;;;;;;;14.70;7.70;;;9.40;99.90;;;;;;4143164;28;20501;-75
2021/10/17 02:34:57;;;;;;;12.18;6.95;;;9.40;99.90;;;;;;4134364;28;20022;-75
2021/10/17 02:36:57;;;;;;;14.52;6.75;;;9.40;99.90;;;;;;4133405;28;20026;-75
2021/10/17 02:38:58;;;;;;;14.85;7.07;;;9.40;99.90;;;;;;4134175;28;20474;-75
2021/10/17 02:40:58;;;;;;;12.93;6.10;;;9.40;99.90;;;;;;4134053;28;20128;-74
2021/10/17 02:42:59;;;;;;;15.43;6.25;;;9.40;99.90;;;;;;4132481;28;20041;-75
2021/10/17 02:44:59;;;;;;;13.15;6.78;;;9.40;99.90;;;;;;4132321;28;20121;-75
2021/10/17 02:47:00;;;;;;;16.77;6.22;;;9.40;99.90;;;;;;4130638;28;20027;-75
2021/10/17 02:49:01;;;;;;;19.05;6.90;;;9.40;99.90;;;;;;4134003;28;20034;-75
2021/10/17 02:51:01;;;;;;;14.25;6.88;;;9.40;99.90;;;;;;4134065;28;20033;-75
2021/10/17 02:53:02;;;;;;;16.90;8.20;;;9.30;99.90;;;;;;4115559;28;20027;-75
2021/10/17 02:55:03;;;;;;;15.50;7.22;;;9.30;99.90;;;;;;4139882;28;20205;-75
2021/10/17 02:57:05;;;;;;;16.38;7.22;;;9.30;99.90;;;;;;4137298;28;20057;-75
2021/10/17 02:59:05;;;;;;;13.32;7.22;;;9.20;99.90;;;;;;4133637;28;20069;-75
2021/10/17 03:01:06;;;;;;;15.35;7.00;;;9.20;99.90;;;;;;4137508;28;20038;-74
2021/10/17 03:03:07;;;;;;;11.63;6.35;;;9.10;99.90;;;;;;4132164;28;20062;-75
2021/10/17 03:05:08;;;;;;;12.93;7.03;;;9.10;99.90;;;;;;4137009;28;20042;-75
2021/10/17 03:07:09;;;;;;;13.75;6.32;;;9.10;99.90;;;;;;4136176;28;25096;-75
2021/10/17 03:09:10;;;;;;;15.52;7.55;;;9.10;99.90;;;;;;4135601;28;20486;-75
2021/10/17 03:11:10;;;;;;;15.20;6.90;;;9.10;99.90;;;;;;4135791;28;20030;-75
2021/10/17 03:13:11;;;;;;;13.70;7.13;;;9.10;99.90;;;;;;4136664;28;20034;-74
2021/10/17 03:15:12;;;;;;;16.92;7.18;;;9.10;99.90;;;;;;4138896;28;20030;-75
2021/10/17 03:17:13;;;;;;;15.98;7.47;;;9.10;99.90;;;;;;4135777;28;20494;-75
2021/10/17 03:19:15;;;;;;;18.90;7.47;;;9.00;99.90;;;;;;4134525;28;20042;-75
2021/10/17 03:21:16;;;;;;;15.05;7.50;;;9.00;99.90;;;;;;4140538;28;20045;-75
2021/10/17 03:23:17;;;;;;;14.23;7.25;;;9.00;99.90;;;;;;4135814;28;20046;-75
2021/10/17 03:25:17;;;;;;;17.27;6.93;;;9.00;99.90;;;;;;4137998;28;20540;-75
2021/10/17 03:27:18;;;;;;;15.57;7.20;;;9.00;99.90;;;;;;4133365;28;20121;-75
2021/10/17 03:29:18;;;;;;;14.35;7.13;;;9.00;99.90;;;;;;4137997;28;20033;-75
2021/10/17 03:31:19;;;;;;;15.68;7.13;;;9.00;99.90;;;;;;4133093;28;20569;-75
2021/10/17 03:33:20;;;;;;;22.40;8.38;;;9.10;99.90;;;;;;4136476;28;20025;-75
2021/10/17 03:35:20;;;;;;;15.90;7.82;;;9.10;99.90;;;;;;4135969;28;20049;-75
2021/10/17 03:37:21;;;;;;;13.80;6.82;;;9.10;99.90;;;;;;4136813;28;20562;-75
2021/10/17 03:39:21;;;;;;;13.95;7.70;;;9.10;99.90;;;;;;4133099;28;20025;-74
2021/10/17 03:41:22;;;;;;;15.40;6.93;;;9.10;99.90;;;;;;4135634;28;20041;-75
2021/10/17 03:43:22;;;;;;;15.07;7.43;;;9.10;99.90;;;;;;4135211;28;20046;-75
2021/10/17 03:45:23;;;;;;;13.20;7.25;;;9.10;99.90;;;;;;4138933;28;20149;-75
2021/10/17 03:47:24;;;;;;;13.85;7.68;;;9.20;99.90;;;;;;4136758;28;20129;-74
2021/10/17 03:49:25;;;;;;;15.27;8.00;;;9.20;99.90;;;;;;4137116;28;20390;-75
2021/10/17 03:51:26;;;;;;;18.67;8.95;;;9.20;99.90;;;;;;4139393;28;20043;-75
2021/10/17 03:53:26;;;;;;;15.32;7.82;;;9.20;99.90;;;;;;4138782;28;20057;-75
2021/10/17 03:55:27;;;;;;;19.50;9.30;;;9.10;99.90;;;;;;4136159;28;20038;-75
2021/10/17 03:57:28;;;;;;;22.58;10.10;;;9.10;99.90;;;;;;4142044;28;20038;-75
2021/10/17 03:59:29;;;;;;;18.17;9.10;;;9.10;99.90;;;;;;4134794;28;20462;-75
2021/10/17 04:01:30;;;;;;;17.67;8.95;;;9.00;99.90;;;;;;4138516;28;20113;-75
2021/10/17 04:03:30;;;;;;;17.23;9.15;;;9.00;99.90;;;;;;4135341;28;20048;-75
2021/10/17 04:05:31;;;;;;;16.67;8.93;;;9.00;99.90;;;;;;4134874;28;20034;-75
2021/10/17 04:07:32;;;;;;;22.98;9.82;;;8.90;99.90;;;;;;4135021;28;20046;-75
2021/10/17 04:09:33;;;;;;;15.93;8.32;;;8.90;99.90;;;;;;4137967;28;20116;-75
2021/10/17 04:11:34;;;;;;;23.30;8.60;;;8.90;99.90;;;;;;4136688;28;20136;-75
2021/10/17 04:13:34;;;;;;;16.60;8.85;;;8.90;99.90;;;;;;4137620;28;20517;-75
2021/10/17 04:15:38;;;;;;;17.88;7.72;;;9.00;99.90;;;;;;4136650;28;20034;-75
2021/10/17 04:17:39;;;;;;;17.65;8.43;;;9.00;99.90;;;;;;4138645;28;20172;-75
2021/10/17 04:19:39;;;;;;;14.57;8.30;;;9.00;99.90;;;;;;4138930;28;20554;-75
2021/10/17 04:21:40;;;;;;;12.65;7.07;;;9.10;99.90;;;;;;4136352;28;20379;-75
2021/10/17 04:23:40;;;;;;;20.13;9.27;;;9.10;99.90;;;;;;4139979;28;20645;-74
2021/10/17 04:25:41;;;;;;;15.70;8.30;;;9.20;99.90;;;;;;4133952;28;20037;-75
2021/10/17 04:27:41;;;;;;;20.20;8.35;;;9.20;99.90;;;;;;4134977;28;20046;-75
2021/10/17 04:29:42;;;;;;;15.27;7.43;;;9.30;99.90;;;;;;4138812;28;20034;-74
2021/10/17 04:31:43;;;;;;;17.45;8.20;;;9.30;99.90;;;;;;4137284;28;20107;-75
2021/10/17 04:33:43;;;;;;;17.60;8.13;;;9.40;99.90;;;;;;4133724;28;20529;-75
2021/10/17 04:35:44;;;;;;;14.95;7.50;;;9.40;99.90;;;;;;4136498;28;20037;-75
2021/10/17 04:37:45;;;;;;;15.80;8.20;;;9.50;99.90;;;;;;4136791;28;20658;-75
2021/10/17 04:39:45;;;;;;;17.65;7.75;;;9.50;99.90;;;;;;4138116;28;20030;-74
2021/10/17 04:41:46;;;;;;;15.68;7.82;;;9.50;99.90;;;;;;4132682;28;20037;-75
2021/10/17 04:43:47;;;;;;;13.38;7.93;;;9.60;99.90;;;;;;4134847;28;20121;-75
2021/10/17 04:45:47;;;;;;;12.23;6.97;;;9.60;99.90;;;;;;4135609;28;20039;-75
2021/10/17 04:47:48;;;;;;;13.35;7.28;;;9.70;99.90;;;;;;4133588;28;20045;-74
2021/10/17 04:49:48;;;;;;;15.32;7.20;;;9.70;99.90;;;;;;4119250;28;20031;-74
2021/10/17 04:51:49;;;;;;;15.85;7.13;;;9.70;99.90;;;;;;4131089;28;20454;-75
2021/10/17 04:53:49;;;;;;;13.57;7.05;;;9.70;99.90;;;;;;4138170;28;20069;-74
2021/10/17 04:55:50;;;;;;;14.60;7.78;;;9.70;99.90;;;;;;4136141;28;20080;-75
2021/10/17 04:57:51;;;;;;;12.82;7.22;;;9.70;99.90;;;;;;4134165;28;20034;-75
2021/10/17 04:59:51;;;;;;;19.55;8.93;;;9.80;99.90;;;;;;4138696;28;20041;-75
2021/10/17 05:01:52;;;;;;;11.85;6.82;;;9.70;99.90;;;;;;4137227;28;20087;-75
2021/10/17 05:03:56;;;;;;;16.52;7.35;;;9.70;99.90;;;;;;4137821;28;20655;-75
2021/10/17 05:05:56;;;;;;;14.88;7.93;;;9.80;99.90;;;;;;4136096;28;20060;-75
2021/10/17 05:07:57;;;;;;;13.90;7.75;;;9.80;99.90;;;;;;4135726;28;21310;-75
2021/10/17 05:09:57;;;;;;;13.32;7.78;;;9.80;99.90;;;;;;4137913;28;20118;-75
2021/10/17 05:11:58;;;;;;;16.05;7.05;;;9.80;99.90;;;;;;4137061;28;20040;-74
2021/10/17 05:13:59;;;;;;;15.70;7.82;;;9.80;99.90;;;;;;4135961;28;20037;-75
2021/10/17 05:15:59;;;;;;;12.95;7.15;;;9.80;99.90;;;;;;4136412;28;20034;-75
2021/10/17 05:18:00;;;;;;;15.20;7.07;;;9.90;99.90;;;;;;4138601;28;20463;-74
2021/10/17 05:20:00;;;;;;;11.93;6.90;;;9.90;99.90;;;;;;4135465;28;20042;-75
2021/10/17 05:22:01;;;;;;;14.65;7.75;;;9.90;99.90;;;;;;4136108;28;20127;-75
2021/10/17 05:24:02;;;;;;;15.52;7.95;;;9.90;99.90;;;;;;4137707;28;20042;-75
2021/10/17 05:26:03;;;;;;;16.73;7.93;;;9.90;99.90;;;;;;4134908;28;20061;-75
2021/10/17 05:28:05;;;;;;;13.57;7.53;;;10.00;99.90;;;;;;4136831;28;20044;-75
2021/10/17 05:30:06;;;;;;;16.73;8.05;;;10.00;99.90;;;;;;4136748;28;20041;-75
2021/10/17 05:32:07;;;;;;;14.50;7.47;;;10.00;99.90;;;;;;4136228;28;20038;-75
2021/10/17 05:34:07;;;;;;;16.38;8.35;;;10.00;99.90;;;;;;4138139;28;20381;-75
2021/10/17 05:36:08;;;;;;;12.70;7.75;;;10.00;99.90;;;;;;4135676;28;20033;-75
2021/10/17 05:38:08;;;;;;;15.18;7.35;;;10.00;99.90;;;;;;4134893;28;20049;-75
2021/10/17 05:40:09;;;;;;;16.92;9.32;;;10.00;99.90;;;;;;4138483;28;20377;-75
2021/10/17 05:42:10;;;;;;;15.98;8.77;;;10.00;99.90;;;;;;4141119;28;20120;-75
2021/10/17 05:44:10;;;;;;;22.35;9.57;;;10.00;99.90;;;;;;4139895;28;20038;-75
2021/10/17 05:46:11;;;;;;;16.35;8.82;;;10.00;99.90;;;;;;4138871;28;20622;-75
2021/10/17 05:48:11;;;;;;;14.07;7.95;;;9.90;99.90;;;;;;4120384;28;20497;-75
2021/10/17 05:50:12;;;;;;;18.67;8.88;;;10.00;99.90;;;;;;4140641;28;20030;-75
2021/10/17 05:52:13;;;;;;;18.45;8.27;;;10.00;99.90;;;;;;4129112;28;20116;-75
2021/10/17 05:54:13;;;;;;;15.43;8.77;;;10.00;99.90;;;;;;4145134;28;20045;-75
2021/10/17 05:56:14;;;;;;;16.42;8.15;;;10.00;99.90;;;;;;4140065;28;20058;-74
2021/10/17 05:58:14;;;;;;;13.73;8.55;;;10.00;99.90;;;;;;4140554;28;20058;-75
2021/10/17 06:00:15;;;;;;;17.17;9.13;;;10.00;99.90;;;;;;4135310;28;20038;-75
2021/10/17 06:02:17;;;;;;;21.95;9.90;;;10.00;99.90;;;;;;4140204;28;20039;-75
2021/10/17 06:04:18;;;;;;;18.65;8.60;;;10.00;99.90;;;;;;4140452;28;20070;-75
2021/10/17 06:06:18;;;;;;;17.95;9.23;;;10.00;99.90;;;;;;4141125;28;20068;-75
2021/10/17 06:08:21;;;;;;;15.18;8.88;;;10.00;99.90;;;;;;4138685;28;20670;-75
2021/10/17 06:10:21;;;;;;;14.13;8.52;;;10.00;99.90;;;;;;4137773;28;20393;-75
2021/10/17 06:12:22;;;;;;;14.50;8.63;;;10.10;99.90;;;;;;4139559;28;20070;-75
2021/10/17 06:14:22;;;;;;;21.60;10.38;;;10.10;99.90;;;;;;4139105;28;20525;-75
2021/10/17 06:16:23;;;;;;;16.98;8.82;;;10.00;99.90;;;;;;4136761;28;20097;-76
2021/10/17 06:18:24;;;;;;;17.50;9.32;;;10.00;99.90;;;;;;4133547;28;20061;-77
2021/10/17 06:20:24;;;;;;;22.27;9.93;;;10.00;99.90;;;;;;4131236;28;20045;-76
2021/10/17 06:22:25;;;;;;;15.20;9.02;;;10.00;99.90;;;;;;4142962;28;20096;-77
2021/10/17 06:24:26;;;;;;;19.95;9.23;;;9.90;99.90;;;;;;4134102;28;20050;-76
2021/10/17 06:26:26;;;;;;;23.63;10.68;;;9.90;99.90;;;;;;4136625;28;20042;-76
2021/10/17 06:28:27;;;;;;;20.20;10.32;;;9.80;99.90;;;;;;4124429;28;20642;-76
2021/10/17 06:30:27;;;;;;;21.17;10.20;;;9.80;99.90;;;;;;4132530;28;20054;-76
2021/10/17 06:32:28;;;;;;;19.48;9.35;;;9.80;99.90;;;;;;4132303;28;20057;-77
2021/10/17 06:34:28;;;;;;;19.73;9.38;;;9.70;99.90;;;;;;4140886;28;20109;-76
2021/10/17 06:36:29;;;;;;;18.95;8.70;;;9.70;99.90;;;;;;4138872;28;20038;-76
2021/10/17 06:38:30;;;;;;;17.10;8.57;;;9.70;99.90;;;;;;4143622;28;20121;-76
2021/10/17 06:40:30;;;;;;;18.42;8.45;;;9.70;99.90;;;;;;4141590;28;20612;-76
2021/10/17 06:42:31;;;;;;;17.77;7.82;;;9.60;99.90;;;;;;4143726;28;20088;-77
2021/10/17 06:44:32;;;;;;;18.00;8.68;;;9.60;99.90;;;;;;4140373;28;20117;-76
2021/10/17 06:46:32;;;;;;;14.85;8.20;;;9.60;99.90;;;;;;4141937;28;20511;-76
2021/10/17 06:48:33;;;;;;;16.23;8.23;;;9.60;99.90;;;;;;4144916;28;20037;-76
2021/10/17 06:50:34;;;;;;;18.02;9.27;;;9.60;99.90;;;;;;4138300;28;20050;-76
2021/10/17 06:52:34;;;;;;;14.68;8.82;;;9.60;99.90;;;;;;4140441;28;20044;-77
2021/10/17 06:54:35;;;;;;;18.85;8.73;;;9.60;99.90;;;;;;4126377;28;20635;-76
2021/10/17 06:56:36;;;;;;;20.52;9.90;;;9.50;99.90;;;;;;4121518;28;20065;-76
2021/10/17 06:58:36;;;;;;;16.50;9.25;;;9.50;99.90;;;;;;4145649;28;20461;-77
2021/10/17 07:00:37;;;;;;;16.45;9.02;;;9.50;99.90;;;;;;4142292;28;20041;-76
2021/10/17 07:02:37;;;;;;;18.15;9.77;;;9.50;99.90;;;;;;4142435;28;20042;-76
2021/10/17 07:04:38;;;;;;;15.45;8.00;;;9.50;99.90;;;;;;4142954;28;20068;-77
2021/10/17 07:06:39;;;;;;;18.83;8.63;;;9.50;99.90;;;;;;4145502;28;20819;-76
2021/10/17 07:08:40;;;;;;;17.55;8.88;;;9.50;99.90;;;;;;4123238;28;20042;-76
2021/10/17 07:10:41;;;;;;;17.52;8.57;;;9.50;99.90;;;;;;4139124;28;20034;-76
2021/10/17 07:12:41;;;;;;;15.80;8.75;;;9.60;99.90;;;;;;4144722;28;20049;-76
2021/10/17 07:14:42;;;;;;;17.77;9.35;;;9.60;99.90;;;;;;4143268;28;20125;-77
2021/10/17 07:16:42;;;;;;;19.02;8.50;;;9.60;99.90;;;;;;4139574;28;20471;-76
2021/10/17 07:18:43;;;;;;;17.15;9.52;;;9.70;99.90;;;;;;4144537;28;20034;-77
2021/10/17 07:20:44;;;;;;;17.10;8.90;;;9.70;99.90;;;;;;4138568;28;20057;-77
2021/10/17 07:22:44;;;;;;;17.90;8.88;;;9.70;99.90;;;;;;4142928;28;20038;-77
2021/10/17 07:24:45;;;;;;;19.23;9.35;;;9.70;99.90;;;;;;4144577;28;20034;-77
2021/10/17 07:26:45;;;;;;;15.57;9.25;;;9.70;99.90;;;;;;4144255;28;20037;-77
2021/10/17 07:28:46;;;;;;;20.10;10.35;;;9.60;99.90;;;;;;4140180;28;20119;-77
2021/10/17 07:30:47;;;;;;;19.98;10.40;;;9.70;99.90;;;;;;4144110;28;20469;-77
2021/10/17 07:32:48;;;;;;;21.13;9.50;;;9.70;99.90;;;;;;4143421;28;20040;-78
2021/10/17 07:34:48;;;;;;;21.23;10.02;;;9.70;99.90;;;;;;4122446;28;20042;-77
2021/10/17 07:36:49;;;;;;;21.80;10.82;;;9.70;99.90;;;;;;4143751;28;20056;-77
2021/10/17 07:38:49;;;;;;;18.95;10.40;;;9.70;99.90;;;;;;4143114;28;20033;-77
2021/10/17 07:40:50;;;;;;;21.23;10.88;;;9.70;99.90;;;;;;4138376;28;20033;-78
2021/10/17 07:42:51;;;;;;;25.15;12.15;;;9.70;99.90;;;;;;4138308;28;20038;-77
2021/10/17 07:44:51;;;;;;;22.23;11.73;;;9.80;99.90;;;;;;4137105;28;20150;-77
2021/10/17 07:46:52;;;;;;;20.95;11.25;;;9.70;99.90;;;;;;4144491;28;20030;-78
2021/10/17 07:48:56;;;;;;;23.58;11.35;;;9.70;99.90;;;;;;4142183;28;20033;-78
2021/10/17 07:50:57;;;;;;;23.90;10.98;;;9.70;99.90;;;;;;4141670;28;21458;-75
2021/10/17 07:52:58;;;;;;;26.50;11.57;;;9.70;99.90;;;;;;4139631;28;20030;-75
2021/10/17 07:54:59;;;;;;;23.23;10.45;;;9.60;99.90;;;;;;4135821;28;20060;-75
2021/10/17 07:56:59;;;;;;;21.25;10.75;;;9.60;99.90;;;;;;4135104;28;20383;-75
2021/10/17 07:59:00;;;;;;;22.05;10.05;;;9.60;99.90;;;;;;4137702;28;20510;-75
2021/10/17 08:01:00;;;;;;;19.48;9.93;;;9.60;99.90;;;;;;4142768;28;20024;-75
2021/10/17 08:03:01;;;;;;;18.67;9.75;;;9.60;99.90;;;;;;4141351;28;20033;-72
2021/10/17 08:05:01;;;;;;;16.50;8.73;;;9.60;99.90;;;;;;4135810;28;20520;-72
2021/10/17 08:07:03;;;;;;;18.02;9.43;;;9.70;99.90;;;;;;4129735;28;20106;-72
2021/10/17 08:09:04;;;;;;;18.58;10.68;;;9.70;99.90;;;;;;4119825;28;20113;-72
2021/10/17 08:11:04;;;;;;;21.83;10.68;;;9.60;99.90;;;;;;4140502;28;20117;-72
2021/10/17 08:13:07;;;;;;;20.83;10.38;;;9.70;99.90;;;;;;4138728;28;20045;-73
2021/10/17 08:15:09;;;;;;;;;;;9.70;99.90;;;;;;4131565;28;20026;-71
2021/10/17 08:17:09;;;;;;;21.90;11.68;;;9.70;99.90;;;;;;4131326;28;20368;-72
2021/10/17 08:19:10;;;;;;;26.17;12.25;;;9.70;99.90;;;;;;4135813;28;20033;-71
2021/10/17 08:21:10;;;;;;;20.15;10.60;;;9.70;99.90;;;;;;4132763;28;20109;-72
2021/10/17 08:23:11;;;;;;;20.55;10.57;;;9.60;99.90;;;;;;4130349;28;20113;-71
2021/10/17 08:25:12;;;;;;;22.63;11.70;;;9.60;99.90;;;;;;4138272;28;20445;-72
2021/10/17 08:27:13;;;;;;;21.48;10.65;;;9.70;99.90;;;;;;4125717;28;20043;-72
2021/10/17 08:29:13;;;;;;;15.93;9.65;;;9.70;99.90;;;;;;4134862;28;20537;-73
2021/10/17 08:31:14;;;;;;;30.00;12.18;;;9.70;99.90;;;;;;4130730;28;20030;-72
2021/10/17 08:33:16;;;;;;;22.63;11.73;;;9.80;99.90;;;;;;4133544;28;20454;-72
2021/10/17 08:35:16;;;;;;;20.85;10.18;;;9.80;99.90;;;;;;4120237;28;20034;-72
2021/10/17 08:37:17;;;;;;;20.48;10.10;;;9.80;99.90;;;;;;4135504;28;20518;-72
2021/10/17 08:39:17;;;;;;;22.55;11.05;;;9.80;99.90;;;;;;4136379;28;20076;-73
2021/10/17 08:41:18;;;;;;;22.17;10.77;;;9.80;99.90;;;;;;4135996;28;20046;-73
2021/10/17 08:43:19;;;;;;;19.08;9.48;;;9.80;99.90;;;;;;4132351;28;20045;-73
2021/10/17 08:45:20;;;;;;;20.77;9.80;;;9.80;99.90;;;;;;4136548;28;20095;-72
2021/10/17 08:47:26;;;;;;;19.60;10.38;;;9.80;99.90;;;;;;4137047;28;20117;-73
2021/10/17 08:49:27;;;;;;;21.98;10.82;;;9.90;99.90;;;;;;4136870;28;20041;-72
2021/10/17 08:51:28;;;;;;;21.23;10.82;;;9.90;99.90;;;;;;4133357;28;20061;-73
2021/10/17 08:53:29;;;;;;;22.02;11.00;;;10.00;99.90;;;;;;4134292;28;20038;-73
2021/10/17 08:55:29;;;;;;;19.38;10.00;;;9.90;99.90;;;;;;4127528;28;20046;-72
2021/10/17 08:57:30;;;;;;;21.17;9.63;;;9.90;99.90;;;;;;4134899;28;20050;-72
2021/10/17 08:59:30;;;;;;;21.17;9.63;;;10.00;99.90;;;;;;4129741;28;20043;-73
2021/10/17 09:01:35;;;;;;;21.65;11.23;;;10.00;99.90;;;;;;4125013;28;20042;-73
2021/10/17 09:03:36;;;;;;;19.90;9.90;;;10.00;99.90;;;;;;4119093;28;20770;-72
2021/10/17 09:05:46;;;;;;;21.27;10.30;;;10.10;99.90;;;;;;4113022;28;20074;-73
2021/10/17 09:07:53;;;;;;;21.92;10.15;;;10.10;99.90;;;;;;4135745;28;20034;-73
2021/10/17 09:10:22;;;;;;;23.42;10.10;;;10.10;99.90;;;;;;4125459;28;20046;-73
2021/10/17 09:12:25;;;;;;;22.25;10.27;;;10.10;99.90;;;;;;4114017;28;20117;-73
2021/10/17 09:14:27;;;;;;;22.85;9.98;;;10.10;99.90;;;;;;4131507;28;20181;-72
2021/10/17 09:16:29;;;;;;;18.13;9.57;;;10.20;99.90;;;;;;4130312;28;20046;-73
2021/10/17 09:18:34;;;;;;;20.48;9.20;;;10.20;99.90;;;;;;4127911;28;20364;-73
2021/10/17 09:20:47;;;;;;;19.02;9.02;;;10.20;99.90;;;;;;4137230;28;20123;-73
2021/10/17 09:22:48;;;;;;;18.50;9.48;;;10.30;99.90;;;;;;4129853;28;20795;-73
2021/10/17 09:24:49;;;;;;;19.20;9.20;;;10.30;99.90;;;;;;4125968;28;20066;-73
2021/10/17 09:27:12;;;;;;;18.35;9.52;;;10.40;99.90;;;;;;4132079;28;20030;-73
2021/10/17 09:29:28;;;;;;;24.40;9.88;;;10.40;99.90;;;;;;4136289;28;20046;-73
2021/10/17 09:31:29;;;;;;;15.15;7.85;;;10.40;99.90;;;;;;4131245;28;20034;-73
2021/10/17 09:33:30;;;;;;;20.13;9.52;;;10.40;99.90;;;;;;4133731;28;20056;-73
2021/10/17 09:35:31;;;;;;;26.42;9.57;;;10.50;99.90;;;;;;4137317;28;20121;-73
2021/10/17 09:37:40;;;;;;;16.98;8.50;;;10.50;99.90;;;;;;4135071;28;20034;-73
2021/10/17 09:39:46;;;;;;;16.67;8.38;;;10.60;99.90;;;;;;4132990;28;20018;-73
2021/10/17 09:41:51;;;;;;;22.92;8.73;;;10.70;99.90;;;;;;4132472;28;20026;-73
2021/10/17 09:43:57;;;;;;;28.38;8.95;;;10.70;99.90;;;;;;4131613;28;20471;-73
2021/10/17 09:46:13;;;;;;;16.63;8.43;;;10.80;99.90;;;;;;4134357;28;20148;-73
2021/10/17 09:48:30;;;;;;;18.67;8.63;;;10.80;99.90;;;;;;4150323;28;20576;-73
2021/10/17 09:50:30;;;;;;;26.88;9.23;;;10.90;99.90;;;;;;4133387;28;20052;-73
2021/10/17 09:52:31;;;;;;;18.83;9.27;;;10.90;99.90;;;;;;4129253;28;21085;-73
2021/10/17 09:54:32;;;;;;;17.35;8.98;;;11.00;99.90;;;;;;4136687;28;20960;-73
2021/10/17 09:56:40;;;;;;;18.60;8.10;;;11.00;99.90;;;;;;4136422;28;20046;-73
2021/10/17 09:58:41;;;;;;;15.68;8.38;;;11.10;99.90;;;;;;4130737;28;20037;-73
2021/10/17 10:00:44;;;;;;;17.42;8.95;;;11.10;99.90;;;;;;4136879;28;20088;-73
2021/10/17 10:02:48;;;;;;;14.50;7.30;;;11.20;99.90;;;;;;4123604;28;20039;-73
2021/10/17 10:04:51;;;;;;;17.48;8.15;;;11.30;99.90;;;;;;4133957;28;20061;-73
2021/10/17 10:06:54;;;;;;;15.40;7.15;;;11.40;99.90;;;;;;4128311;28;20041;-73
2021/10/17 10:08:58;;;;;;;13.02;6.80;;;11.50;99.90;;;;;;4124001;28;20034;-73
2021/10/17 10:11:00;;;;;;;12.73;7.68;;;11.60;99.90;;;;;;4123429;28;20220;-73
2021/10/17 10:13:05;;;;;;;17.15;7.70;;;11.60;99.90;;;;;;4136257;28;20028;-73
2021/10/17 10:15:07;;;;;;;14.73;7.22;;;11.70;99.90;;;;;;4133883;28;20189;-72
2021/10/17 10:17:09;;;;;;;13.02;7.53;;;11.80;99.90;;;;;;4135677;28;20030;-73
2021/10/17 10:19:13;;;;;;;14.23;6.80;;;11.80;99.90;;;;;;4133236;28;20647;-73
2021/10/17 10:21:14;;;;;;;17.20;8.00;;;11.90;99.90;;;;;;4147914;28;20529;-72
2021/10/17 10:23:17;;;;;;;11.27;6.45;;;11.90;99.90;;;;;;4135311;28;20096;-73
2021/10/17 10:25:19;;;;;;;12.02;6.40;;;12.00;99.90;;;;;;4132939;28;20101;-72
2021/10/17 10:27:21;;;;;;;20.33;7.38;;;12.10;99.90;;;;;;4132848;28;20047;-73
2021/10/17 10:29:27;;;;;;;16.38;7.68;;;12.10;99.90;;;;;;4136576;28;20046;-73